createdAt,value
2023-04-25T00:00:45.335Z,94444.00
2023-04-25T00:01:45.400Z,94442.00
2023-04-25T00:02:45.559Z,94440.00
2023-04-25T00:03:45.688Z,94438.00
2023-04-25T00:04:45.876Z,94440.00
2023-04-25T00:05:45.622Z,94438.00
2023-04-25T00:06:45.606Z,94440.00
2023-04-25T00:07:45.694Z,94440.00
2023-04-25T00:08:45.700Z,94438.00
2023-04-25T00:09:45.768Z,94440.00
2023-04-25T00:10:46.624Z,94440.00
2023-04-25T00:11:45.858Z,94440.00
2023-04-25T00:12:45.875Z,94442.00
2023-04-25T00:13:45.981Z,94442.00
2023-04-25T00:14:45.974Z,94442.00
2023-04-25T00:15:46.075Z,94442.00
2023-04-25T00:16:46.099Z,94440.00
2023-04-25T00:17:46.134Z,94442.00
2023-04-25T00:18:46.182Z,94438.00
2023-04-25T00:19:46.259Z,94438.00
2023-04-25T00:20:46.272Z,94436.00
2023-04-25T00:21:46.329Z,94436.00
2023-04-25T00:22:46.385Z,94436.00
2023-04-25T00:23:46.414Z,94436.00
2023-04-25T00:24:46.451Z,94434.00
2023-04-25T00:25:46.521Z,94438.00
2023-04-25T00:26:46.582Z,94432.00
2023-04-25T00:27:46.599Z,94434.00
2023-04-25T00:28:46.645Z,94434.00
2023-04-25T00:29:46.710Z,94434.00
2023-04-25T00:30:46.741Z,94434.00
2023-04-25T00:31:46.875Z,94436.00
2023-04-25T00:32:46.938Z,94438.00
2023-04-25T00:33:46.900Z,94436.00
2023-04-25T00:34:46.956Z,94438.00
2023-04-25T00:35:46.966Z,94436.00
2023-04-25T00:36:47.081Z,94436.00
2023-04-25T00:37:47.093Z,94434.00
2023-04-25T00:38:47.130Z,94438.00
2023-04-25T00:39:47.155Z,94440.00
2023-04-25T00:40:47.190Z,94442.00
2023-04-25T00:41:47.265Z,94444.00
2023-04-25T00:42:47.283Z,94446.00
2023-04-25T00:43:47.355Z,94444.00
2023-04-25T00:44:47.392Z,94442.00
2023-04-25T00:45:47.424Z,94440.00
2023-04-25T00:46:47.539Z,94438.00
2023-04-25T00:47:47.590Z,94440.00
2023-04-25T00:48:47.577Z,94440.00
2023-04-25T00:49:47.643Z,94436.00
2023-04-25T00:50:47.687Z,94438.00
2023-04-25T00:51:47.726Z,94436.00
2023-04-25T00:52:47.774Z,94436.00
2023-04-25T00:53:47.842Z,94438.00
2023-04-25T00:54:47.875Z,94436.00
2023-04-25T00:55:47.913Z,94438.00
2023-04-25T00:56:47.974Z,94438.00
2023-04-25T00:57:48.014Z,94438.00
2023-04-25T00:58:48.038Z,94438.00
2023-04-25T00:59:48.086Z,94442.00
2023-04-25T01:00:48.207Z,94440.00
2023-04-25T01:01:48.232Z,94444.00
2023-04-25T01:02:48.460Z,94442.00
2023-04-25T01:03:48.408Z,94442.00
2023-04-25T01:04:48.340Z,94444.00
2023-04-25T01:05:48.398Z,94444.00
2023-04-25T01:06:48.452Z,94446.00
2023-04-25T01:07:48.498Z,94440.00
2023-04-25T01:08:48.517Z,94440.00
2023-04-25T01:09:48.617Z,94436.00
2023-04-25T01:10:48.614Z,94434.00
2023-04-25T01:11:48.678Z,94428.00
2023-04-25T01:12:48.774Z,94428.00
2023-04-25T01:13:49.159Z,94425.00
2023-04-25T01:14:48.833Z,94425.00
2023-04-25T01:15:48.868Z,94425.00
2023-04-25T01:16:48.955Z,94425.00
2023-04-25T01:17:49.043Z,94425.00
2023-04-25T01:18:49.064Z,94423.00
2023-04-25T01:19:49.101Z,94423.00
2023-04-25T01:20:49.154Z,94421.00
2023-04-25T01:21:49.194Z,94423.00
2023-04-25T01:22:49.252Z,94421.00
2023-04-25T01:23:49.502Z,94423.00
2023-04-25T01:24:49.340Z,94423.00
2023-04-25T01:25:49.377Z,94423.00
2023-04-25T01:26:49.440Z,94419.00
2023-04-25T01:27:49.553Z,94419.00
2023-04-25T01:28:49.493Z,94421.00
2023-04-25T01:29:49.577Z,94419.00
2023-04-25T01:30:49.629Z,94421.00
2023-04-25T01:31:49.682Z,94425.00
2023-04-25T01:32:49.753Z,94421.00
2023-04-25T01:33:49.978Z,94423.00
2023-04-25T01:34:49.834Z,94425.00
2023-04-25T01:35:49.861Z,94425.00
2023-04-25T01:36:49.914Z,94425.00
2023-04-25T01:37:49.997Z,94423.00
2023-04-25T01:38:50.029Z,94425.00
2023-04-25T01:39:50.111Z,94423.00
2023-04-25T01:40:50.141Z,94419.00
2023-04-25T01:41:50.187Z,94421.00
2023-04-25T01:42:50.238Z,94419.00
2023-04-25T01:43:50.449Z,94421.00
2023-04-25T01:44:50.385Z,94421.00
2023-04-25T01:45:50.436Z,94419.00
2023-04-25T01:46:50.480Z,94419.00
2023-04-25T01:47:50.610Z,94417.00
2023-04-25T01:48:50.583Z,94417.00
2023-04-25T01:49:50.651Z,94417.00
2023-04-25T01:50:50.722Z,94413.00
2023-04-25T01:51:50.751Z,94413.00
2023-04-25T01:52:50.809Z,94413.00
2023-04-25T01:53:51.066Z,94415.00
2023-04-25T01:54:50.929Z,94415.00
2023-04-25T01:55:50.953Z,94413.00
2023-04-25T01:56:50.990Z,94411.00
2023-04-25T01:57:51.053Z,94411.00
2023-04-25T01:58:51.122Z,94413.00
2023-04-25T01:59:51.150Z,94413.00
2023-04-25T02:00:51.226Z,94415.00
2023-04-25T02:01:51.381Z,94415.00
2023-04-25T02:02:51.404Z,94417.00
2023-04-25T02:03:51.804Z,94415.00
2023-04-25T02:04:51.632Z,94415.00
2023-04-25T02:05:51.510Z,94415.00
2023-04-25T02:06:51.562Z,94415.00
2023-04-25T02:07:51.645Z,94417.00
2023-04-25T02:08:51.656Z,94419.00
2023-04-25T02:09:51.722Z,94415.00
2023-04-25T02:10:51.803Z,94421.00
2023-04-25T02:11:51.859Z,94421.00
2023-04-25T02:12:51.908Z,94423.00
2023-04-25T02:13:52.178Z,94417.00
2023-04-25T02:14:52.041Z,94415.00
2023-04-25T02:15:52.162Z,94415.00
2023-04-25T02:16:52.294Z,94415.00
2023-04-25T02:17:52.270Z,94415.00
2023-04-25T02:18:52.262Z,94415.00
2023-04-25T02:19:52.342Z,94413.00
2023-04-25T02:20:52.404Z,94415.00
2023-04-25T02:21:52.416Z,94415.00
2023-04-25T02:22:52.483Z,94417.00
2023-04-25T02:23:52.737Z,94413.00
2023-04-25T02:24:52.592Z,94415.00
2023-04-25T02:25:52.669Z,94415.00
2023-04-25T02:26:52.730Z,94415.00
2023-04-25T02:27:52.774Z,94415.00
2023-04-25T02:28:52.837Z,94413.00
2023-04-25T02:29:52.909Z,94413.00
2023-04-25T02:30:53.032Z,94411.00
2023-04-25T02:31:53.110Z,94411.00
2023-04-25T02:32:53.141Z,94413.00
2023-04-25T02:33:53.339Z,94413.00
2023-04-25T02:34:53.164Z,94415.00
2023-04-25T02:35:53.240Z,94415.00
2023-04-25T02:36:53.314Z,94413.00
2023-04-25T02:37:53.393Z,94417.00
2023-04-25T02:38:53.438Z,94415.00
2023-04-25T02:39:53.473Z,94415.00
2023-04-25T02:40:53.561Z,94413.00
2023-04-25T02:41:53.601Z,94413.00
2023-04-25T02:42:53.639Z,94413.00
2023-04-25T02:43:53.692Z,94413.00
2023-04-25T02:44:53.780Z,94415.00
2023-04-25T02:45:53.836Z,94415.00
2023-04-25T02:46:54.047Z,94415.00
2023-04-25T02:47:54.012Z,94413.00
2023-04-25T02:48:54.007Z,94415.00
2023-04-25T02:49:54.089Z,94415.00
2023-04-25T02:50:54.139Z,94415.00
2023-04-25T02:51:54.189Z,94415.00
2023-04-25T02:52:54.264Z,94415.00
2023-04-25T02:53:54.312Z,94417.00
2023-04-25T02:54:54.403Z,94417.00
2023-04-25T02:55:54.459Z,94419.00
2023-04-25T02:56:54.486Z,94419.00
2023-04-25T02:57:54.578Z,94417.00
2023-04-25T02:58:54.646Z,94419.00
2023-04-25T02:59:54.685Z,94419.00
2023-04-25T03:00:54.781Z,94419.00
2023-04-25T03:01:54.804Z,94419.00
2023-04-25T03:02:54.992Z,94415.00
2023-04-25T03:03:55.318Z,94415.00
2023-04-25T03:04:54.970Z,94413.00
2023-04-25T03:05:55.029Z,94415.00
2023-04-25T03:06:55.126Z,94413.00
2023-04-25T03:07:55.174Z,94413.00
2023-04-25T03:08:55.240Z,94413.00
2023-04-25T03:09:55.320Z,94411.00
2023-04-25T03:10:55.383Z,94415.00
2023-04-25T03:11:55.405Z,94413.00
2023-04-25T03:12:55.487Z,94413.00
2023-04-25T03:13:55.578Z,94413.00
2023-04-25T03:14:55.600Z,94415.00
2023-04-25T03:15:55.676Z,94415.00
2023-04-25T03:16:55.807Z,94413.00
2023-04-25T03:17:55.858Z,94411.00
2023-04-25T03:18:55.876Z,94413.00
2023-04-25T03:19:55.940Z,94411.00
2023-04-25T03:20:55.972Z,94411.00
2023-04-25T03:21:56.026Z,94409.00
2023-04-25T03:22:56.074Z,94409.00
2023-04-25T03:23:56.141Z,94407.00
2023-04-25T03:24:56.188Z,94405.00
2023-04-25T03:25:56.239Z,94409.00
2023-04-25T03:26:56.297Z,94409.00
2023-04-25T03:27:56.341Z,94407.00
2023-04-25T03:28:56.426Z,94409.00
2023-04-25T03:29:56.452Z,94409.00
2023-04-25T03:30:56.486Z,94411.00
2023-04-25T03:31:56.577Z,94411.00
2023-04-25T03:32:56.645Z,94411.00
2023-04-25T03:33:56.623Z,94407.00
2023-04-25T03:34:56.690Z,94409.00
2023-04-25T03:35:56.691Z,94407.00
2023-04-25T03:36:56.729Z,94405.00
2023-04-25T03:37:56.795Z,94403.00
2023-04-25T03:38:56.825Z,94403.00
2023-04-25T03:39:56.863Z,94401.00
2023-04-25T03:40:56.892Z,94405.00
2023-04-25T03:41:56.918Z,94407.00
2023-04-25T03:42:56.955Z,94405.00
2023-04-25T03:43:56.975Z,94407.00
2023-04-25T03:44:56.988Z,94405.00
2023-04-25T03:45:57.031Z,94405.00
2023-04-25T03:46:57.047Z,94403.00
2023-04-25T03:47:57.100Z,94401.00
2023-04-25T03:48:57.073Z,94397.00
2023-04-25T03:49:57.091Z,94397.00
2023-04-25T03:50:57.116Z,94397.00
2023-04-25T03:51:57.147Z,94399.00
2023-04-25T03:52:57.150Z,94403.00
2023-04-25T03:53:57.153Z,94403.00
2023-04-25T03:54:57.128Z,94401.00
2023-04-25T03:55:57.134Z,94401.00
2023-04-25T03:56:57.158Z,94401.00
2023-04-25T03:57:57.174Z,94401.00
2023-04-25T03:58:57.163Z,94399.00
2023-04-25T03:59:57.169Z,94401.00
2023-04-25T04:00:57.189Z,94401.00
2023-04-25T04:01:57.170Z,94403.00
2023-04-25T04:02:57.321Z,94401.00
2023-04-25T04:03:57.678Z,94403.00
2023-04-25T04:04:57.297Z,94401.00
2023-04-25T04:05:57.259Z,94399.00
2023-04-25T04:06:57.214Z,94399.00
2023-04-25T04:07:57.179Z,94401.00
2023-04-25T04:08:57.204Z,94399.00
2023-04-25T04:09:57.175Z,94399.00
2023-04-25T04:10:57.181Z,94397.00
2023-04-25T04:11:57.188Z,94395.00
2023-04-25T04:12:57.158Z,94397.00
2023-04-25T04:13:57.159Z,94397.00
2023-04-25T04:14:57.175Z,94399.00
2023-04-25T04:15:57.220Z,94399.00
2023-04-25T04:16:57.157Z,94401.00
2023-04-25T04:17:57.197Z,94401.00
2023-04-25T04:18:57.134Z,94399.00
2023-04-25T04:19:57.141Z,94397.00
2023-04-25T04:20:57.110Z,94399.00
2023-04-25T04:21:57.115Z,94401.00
2023-04-25T04:22:57.084Z,94401.00
2023-04-25T04:23:57.084Z,94401.00
2023-04-25T04:24:57.077Z,94405.00
2023-04-25T04:25:57.063Z,94403.00
2023-04-25T04:26:57.031Z,94401.00
2023-04-25T04:27:57.039Z,94403.00
2023-04-25T04:28:56.997Z,94405.00
2023-04-25T04:29:56.980Z,94403.00
2023-04-25T04:30:56.993Z,94401.00
2023-04-25T04:31:57.022Z,94395.00
2023-04-25T04:32:57.085Z,94395.00
2023-04-25T04:33:56.937Z,94399.00
2023-04-25T04:34:56.907Z,94397.00
2023-04-25T04:35:56.887Z,94397.00
2023-04-25T04:36:56.881Z,94389.00
2023-04-25T04:37:56.861Z,94391.00
2023-04-25T04:38:56.873Z,94391.00
2023-04-25T04:39:56.835Z,94391.00
2023-04-25T04:40:56.842Z,94393.00
2023-04-25T04:41:56.792Z,94393.00
2023-04-25T04:42:56.780Z,94391.00
2023-04-25T04:43:56.762Z,94393.00
2023-04-25T04:44:56.775Z,94401.00
2023-04-25T04:45:56.751Z,94397.00
2023-04-25T04:46:56.844Z,94401.00
2023-04-25T04:47:56.823Z,94401.00
2023-04-25T04:48:56.707Z,94395.00
2023-04-25T04:49:56.718Z,94395.00
2023-04-25T04:50:56.705Z,94393.00
2023-04-25T04:51:58.399Z,94395.00
2023-04-25T04:52:56.636Z,94391.00
2023-04-25T04:53:56.618Z,94395.00
2023-04-25T04:54:56.603Z,94393.00
2023-04-25T04:55:56.622Z,94389.00
2023-04-25T04:56:56.576Z,94389.00
2023-04-25T04:57:56.554Z,94387.00
2023-04-25T04:58:56.558Z,94380.00
2023-04-25T04:59:56.537Z,94387.00
2023-04-25T05:01:03.586Z,94389.00
2023-04-25T05:01:56.494Z,94389.00
2023-04-25T05:02:56.626Z,94389.00
2023-04-25T05:03:57.033Z,94389.00
2023-04-25T05:04:56.472Z,94391.00
2023-04-25T05:05:56.469Z,94389.00
2023-04-25T05:06:56.449Z,94391.00
2023-04-25T05:07:56.437Z,94389.00
2023-04-25T05:08:56.421Z,94389.00
2023-04-25T05:09:56.367Z,94387.00
2023-04-25T05:10:56.393Z,94380.00
2023-04-25T05:11:56.350Z,94380.00
2023-04-25T05:12:56.346Z,94378.00
2023-04-25T05:13:56.331Z,94378.00
2023-04-25T05:14:56.318Z,94378.00
2023-04-25T05:15:56.278Z,94378.00
2023-04-25T05:16:56.341Z,94378.00
2023-04-25T05:17:56.294Z,94378.00
2023-04-25T05:18:56.217Z,94378.00
2023-04-25T05:19:56.270Z,94376.00
2023-04-25T05:20:56.179Z,94378.00
2023-04-25T05:21:56.171Z,94380.00
2023-04-25T05:22:56.167Z,94387.00
2023-04-25T05:23:56.141Z,94389.00
2023-04-25T05:24:56.382Z,94391.00
2023-04-25T05:25:56.099Z,94391.00
2023-04-25T05:26:56.076Z,94389.00
2023-04-25T05:27:56.074Z,94387.00
2023-04-25T05:28:56.060Z,94387.00
2023-04-25T05:29:56.272Z,94380.00
2023-04-25T05:30:55.994Z,94380.00
2023-04-25T05:31:56.010Z,94380.00
2023-04-25T05:32:56.014Z,94387.00
2023-04-25T05:33:55.986Z,94389.00
2023-04-25T05:34:56.325Z,94380.00
2023-04-25T05:35:55.952Z,94378.00
2023-04-25T05:36:55.927Z,94376.00
2023-04-25T05:37:55.873Z,94376.00
2023-04-25T05:38:55.873Z,94370.00
2023-04-25T05:39:56.323Z,94370.00
2023-04-25T05:40:55.844Z,94370.00
2023-04-25T05:41:55.834Z,94372.00
2023-04-25T05:42:55.800Z,94372.00
2023-04-25T05:43:57.906Z,94374.00
2023-04-25T05:44:55.956Z,94374.00
2023-04-25T05:46:03.080Z,94376.00
2023-04-25T05:46:55.994Z,94376.00
2023-04-25T05:47:56.007Z,94370.00
2023-04-25T05:48:55.945Z,94372.00
2023-04-25T05:49:55.917Z,94374.00
2023-04-25T05:50:55.909Z,94372.00
2023-04-25T05:51:55.886Z,94378.00
2023-04-25T05:52:55.870Z,94376.00
2023-04-25T05:53:55.860Z,94374.00
2023-04-25T05:54:55.814Z,94374.00
2023-04-25T05:55:55.897Z,94372.00
2023-04-25T05:56:55.785Z,94372.00
2023-04-25T05:57:55.796Z,94370.00
2023-04-25T05:58:55.748Z,94362.00
2023-04-25T05:59:55.733Z,94356.00
2023-04-25T06:00:55.784Z,94346.00
2023-04-25T06:01:55.723Z,94342.00
2023-04-25T06:02:55.827Z,94334.00
2023-04-25T06:03:55.909Z,94333.00
2023-04-25T06:04:55.758Z,94333.00
2023-04-25T06:05:55.707Z,94340.00
2023-04-25T06:06:55.551Z,94340.00
2023-04-25T06:07:55.532Z,94344.00
2023-04-25T06:08:55.524Z,94342.00
2023-04-25T06:09:55.491Z,94342.00
2023-04-25T06:10:55.534Z,94340.00
2023-04-25T06:11:55.428Z,94338.00
2023-04-25T06:12:55.441Z,94336.00
2023-04-25T06:13:55.413Z,94334.00
2023-04-25T06:14:55.372Z,94333.00
2023-04-25T06:15:55.422Z,94336.00
2023-04-25T06:16:55.378Z,94336.00
2023-04-25T06:17:55.400Z,94338.00
2023-04-25T06:18:55.314Z,94338.00
2023-04-25T06:19:55.279Z,94334.00
2023-04-25T06:20:55.293Z,94334.00
2023-04-25T06:21:55.235Z,94342.00
2023-04-25T06:22:55.264Z,94340.00
2023-04-25T06:23:55.241Z,94340.00
2023-04-25T06:24:55.240Z,94338.00
2023-04-25T06:25:55.285Z,94338.00
2023-04-25T06:26:55.300Z,94338.00
2023-04-25T06:27:55.340Z,94336.00
2023-04-25T06:28:55.353Z,94334.00
2023-04-25T06:29:55.352Z,94333.00
2023-04-25T06:30:55.366Z,94329.00
2023-04-25T06:31:55.357Z,94323.00
2023-04-25T06:32:55.399Z,94323.00
2023-04-25T06:33:55.325Z,94321.00
2023-04-25T06:34:55.355Z,94319.00
2023-04-25T06:35:55.386Z,94321.00
2023-04-25T06:36:55.396Z,94321.00
2023-04-25T06:37:55.428Z,94321.00
2023-04-25T06:38:55.472Z,94321.00
2023-04-25T06:39:55.518Z,94321.00
2023-04-25T06:40:55.826Z,94323.00
2023-04-25T06:41:55.572Z,94321.00
2023-04-25T06:42:55.616Z,94325.00
2023-04-25T06:43:55.613Z,94325.00
2023-04-25T06:44:55.722Z,94323.00
2023-04-25T06:45:55.820Z,94325.00
2023-04-25T06:46:55.773Z,94327.00
2023-04-25T06:47:55.889Z,94323.00
2023-04-25T06:48:55.840Z,94323.00
2023-04-25T06:49:55.862Z,94321.00
2023-04-25T06:50:55.934Z,94321.00
2023-04-25T06:51:55.951Z,94323.00
2023-04-25T06:52:55.989Z,94321.00
2023-04-25T06:53:55.988Z,94319.00
2023-04-25T06:54:55.997Z,94313.00
2023-04-25T06:55:56.057Z,94315.00
2023-04-25T06:56:56.091Z,94313.00
2023-04-25T06:57:56.109Z,94311.00
2023-04-25T06:58:56.101Z,94311.00
2023-04-25T06:59:56.121Z,94309.00
2023-04-25T07:00:56.223Z,94309.00
2023-04-25T07:01:56.190Z,94307.00
2023-04-25T07:02:56.334Z,94307.00
2023-04-25T07:03:56.374Z,94305.00
2023-04-25T07:04:56.277Z,94303.00
2023-04-25T07:05:56.228Z,94301.00
2023-04-25T07:06:56.354Z,94301.00
2023-04-25T07:07:56.249Z,94299.00
2023-04-25T07:08:56.276Z,94303.00
2023-04-25T07:09:56.303Z,94303.00
2023-04-25T07:10:56.290Z,94301.00
2023-04-25T07:11:56.351Z,94301.00
2023-04-25T07:12:56.326Z,94301.00
2023-04-25T07:13:56.405Z,94303.00
2023-04-25T07:14:56.477Z,94305.00
2023-04-25T07:15:57.538Z,94301.00
2023-04-25T07:16:56.343Z,94301.00
2023-04-25T07:17:56.463Z,94301.00
2023-04-25T07:18:56.234Z,94303.00
2023-04-25T07:19:56.205Z,94307.00
2023-04-25T07:20:56.186Z,94307.00
2023-04-25T07:21:56.338Z,94309.00
2023-04-25T07:22:56.137Z,94311.00
2023-04-25T07:23:56.063Z,94309.00
2023-04-25T07:24:56.073Z,94311.00
2023-04-25T07:25:56.054Z,94309.00
2023-04-25T07:26:56.387Z,94307.00
2023-04-25T07:27:55.967Z,94309.00
2023-04-25T07:28:55.944Z,94311.00
2023-04-25T07:29:55.892Z,94307.00
2023-04-25T07:30:55.849Z,94305.00
2023-04-25T07:31:55.949Z,94303.00
2023-04-25T07:32:55.790Z,94307.00
2023-04-25T07:33:55.741Z,94307.00
2023-04-25T07:34:55.753Z,94309.00
2023-04-25T07:35:55.728Z,94309.00
2023-04-25T07:36:55.946Z,94305.00
2023-04-25T07:37:55.734Z,94311.00
2023-04-25T07:38:55.697Z,94311.00
2023-04-25T07:39:55.666Z,94311.00
2023-04-25T07:40:55.733Z,94315.00
2023-04-25T07:41:55.859Z,94315.00
2023-04-25T07:42:55.664Z,94315.00
2023-04-25T07:43:56.690Z,94313.00
2023-04-25T07:44:55.638Z,94313.00
2023-04-25T07:45:55.623Z,94309.00
2023-04-25T07:46:55.914Z,94305.00
2023-04-25T07:47:55.652Z,94305.00
2023-04-25T07:48:55.647Z,94307.00
2023-04-25T07:49:55.623Z,94305.00
2023-04-25T07:50:55.646Z,94305.00
2023-04-25T07:51:55.643Z,94307.00
2023-04-25T07:52:55.681Z,94307.00
2023-04-25T07:53:55.674Z,94309.00
2023-04-25T07:54:55.699Z,94309.00
2023-04-25T07:55:55.708Z,94307.00
2023-04-25T07:56:55.753Z,94309.00
2023-04-25T07:57:55.784Z,94303.00
2023-04-25T07:58:55.785Z,94303.00
2023-04-25T07:59:55.780Z,94303.00
2023-04-25T08:00:55.802Z,94301.00
2023-04-25T08:01:55.891Z,94303.00
2023-04-25T08:02:56.037Z,94303.00
2023-04-25T08:03:55.995Z,94301.00
2023-04-25T08:04:55.966Z,94301.00
2023-04-25T08:05:55.949Z,94301.00
2023-04-25T08:06:55.972Z,94299.00
2023-04-25T08:07:55.983Z,94301.00
2023-04-25T08:08:56.000Z,94301.00
2023-04-25T08:09:56.024Z,94303.00
2023-04-25T08:10:56.051Z,94303.00
2023-04-25T08:11:56.424Z,94305.00
2023-04-25T08:12:56.135Z,94303.00
2023-04-25T08:13:56.114Z,94301.00
2023-04-25T08:14:56.172Z,94299.00
2023-04-25T08:15:56.238Z,94303.00
2023-04-25T08:16:56.215Z,94305.00
2023-04-25T08:17:56.375Z,94301.00
2023-04-25T08:18:56.312Z,94301.00
2023-04-25T08:19:56.313Z,94303.00
2023-04-25T08:20:56.394Z,94305.00
2023-04-25T08:21:56.398Z,94305.00
2023-04-25T08:22:56.433Z,94309.00
2023-04-25T08:23:56.453Z,94309.00
2023-04-25T08:24:56.492Z,94307.00
2023-04-25T08:25:56.534Z,94309.00
2023-04-25T08:26:56.940Z,94307.00
2023-04-25T08:27:56.618Z,94307.00
2023-04-25T08:28:56.631Z,94307.00
2023-04-25T08:29:57.291Z,94303.00
2023-04-25T08:30:56.724Z,94301.00
2023-04-25T08:31:56.943Z,94299.00
2023-04-25T08:32:56.777Z,94301.00
2023-04-25T08:33:56.821Z,94299.00
2023-04-25T08:34:56.892Z,94295.00
2023-04-25T08:35:57.059Z,94295.00
2023-04-25T08:36:57.416Z,94293.00
2023-04-25T08:37:57.025Z,94293.00
2023-04-25T08:38:57.341Z,94293.00
2023-04-25T08:39:57.082Z,94291.00
2023-04-25T08:40:57.133Z,94295.00
2023-04-25T08:41:57.120Z,94293.00
2023-04-25T08:42:57.219Z,94293.00
2023-04-25T08:43:57.175Z,94295.00
2023-04-25T08:44:57.152Z,94291.00
2023-04-25T08:45:57.138Z,94295.00
2023-04-25T08:46:57.462Z,94297.00
2023-04-25T08:47:57.182Z,94297.00
2023-04-25T08:48:57.882Z,94295.00
2023-04-25T08:49:57.141Z,94293.00
2023-04-25T08:50:57.163Z,94293.00
2023-04-25T08:51:57.418Z,94291.00
2023-04-25T08:52:57.137Z,94291.00
2023-04-25T08:53:58.806Z,94291.00
2023-04-25T08:54:58.092Z,94295.00
2023-04-25T08:55:57.150Z,94293.00
2023-04-25T08:56:57.083Z,94293.00
2023-04-25T08:57:57.126Z,94289.00
2023-04-25T08:58:57.042Z,94295.00
2023-04-25T08:59:57.036Z,94295.00
2023-04-25T09:00:57.162Z,94295.00
2023-04-25T09:01:57.398Z,94293.00
2023-04-25T09:02:57.062Z,94287.00
2023-04-25T09:03:57.022Z,94287.00
2023-04-25T09:04:56.945Z,94291.00
2023-04-25T09:05:56.970Z,94289.00
2023-04-25T09:06:57.250Z,94289.00
2023-04-25T09:07:57.106Z,94287.00
2023-04-25T09:08:57.149Z,94291.00
2023-04-25T09:09:57.125Z,94293.00
2023-04-25T09:10:57.205Z,94291.00
2023-04-25T09:11:57.294Z,94287.00
2023-04-25T09:12:57.322Z,94286.00
2023-04-25T09:13:57.280Z,94289.00
2023-04-25T09:14:57.312Z,94286.00
2023-04-25T09:15:57.394Z,94287.00
2023-04-25T09:16:58.005Z,94287.00
2023-04-25T09:17:57.511Z,94289.00
2023-04-25T09:18:57.515Z,94289.00
2023-04-25T09:19:57.550Z,94286.00
2023-04-25T09:21:01.891Z,94286.00
2023-04-25T09:21:57.554Z,94286.00
2023-04-25T09:22:57.575Z,94284.00
2023-04-25T09:23:57.520Z,94287.00
2023-04-25T09:24:57.517Z,94286.00
2023-04-25T09:25:57.507Z,94284.00
2023-04-25T09:26:57.528Z,94284.00
2023-04-25T09:27:57.461Z,94286.00
2023-04-25T09:28:57.454Z,94287.00
2023-04-25T09:29:57.432Z,94289.00
2023-04-25T09:30:57.410Z,94293.00
2023-04-25T09:31:57.454Z,94293.00
2023-04-25T09:32:57.426Z,94299.00
2023-04-25T09:33:57.387Z,94295.00
2023-04-25T09:34:57.345Z,94297.00
2023-04-25T09:35:57.365Z,94299.00
2023-04-25T09:36:57.452Z,94297.00
2023-04-25T09:37:57.973Z,94293.00
2023-04-25T09:38:57.538Z,94291.00
2023-04-25T09:39:57.580Z,94293.00
2023-04-25T09:40:57.637Z,94291.00
2023-04-25T09:41:57.674Z,94297.00
2023-04-25T09:42:57.963Z,94293.00
2023-04-25T09:43:58.012Z,94293.00
2023-04-25T09:44:57.801Z,94295.00
2023-04-25T09:45:59.070Z,94295.00
2023-04-25T09:46:57.863Z,94299.00
2023-04-25T09:47:57.987Z,94295.00
2023-04-25T09:48:57.947Z,94295.00
2023-04-25T09:49:57.973Z,94297.00
2023-04-25T09:50:58.037Z,94295.00
2023-04-25T09:51:58.078Z,94295.00
2023-04-25T09:52:58.126Z,94293.00
2023-04-25T09:53:58.177Z,94295.00
2023-04-25T09:54:58.208Z,94291.00
2023-04-25T09:55:58.248Z,94297.00
2023-04-25T09:56:58.325Z,94297.00
2023-04-25T09:57:58.470Z,94295.00
2023-04-25T09:58:58.300Z,94297.00
2023-04-25T09:59:58.280Z,94299.00
2023-04-25T10:00:58.330Z,94303.00
2023-04-25T10:01:58.320Z,94305.00
2023-04-25T10:02:58.315Z,94307.00
2023-04-25T10:03:58.396Z,94305.00
2023-04-25T10:04:58.431Z,94305.00
2023-04-25T10:05:58.275Z,94305.00
2023-04-25T10:06:58.294Z,94303.00
2023-04-25T10:07:58.328Z,94299.00
2023-04-25T10:08:58.353Z,94297.00
2023-04-25T10:09:58.329Z,94297.00
2023-04-25T10:10:58.376Z,94297.00
2023-04-25T10:11:58.449Z,94297.00
2023-04-25T10:12:58.397Z,94295.00
2023-04-25T10:13:58.462Z,94297.00
2023-04-25T10:14:58.491Z,94297.00
2023-04-25T10:15:58.519Z,94295.00
2023-04-25T10:16:58.522Z,94291.00
2023-04-25T10:17:58.537Z,94291.00
2023-04-25T10:18:58.588Z,94289.00
2023-04-25T10:19:58.625Z,94289.00
2023-04-25T10:20:58.585Z,94286.00
2023-04-25T10:21:58.590Z,94282.00
2023-04-25T10:22:58.635Z,94280.00
2023-04-25T10:23:58.636Z,94278.00
2023-04-25T10:24:58.655Z,94280.00
2023-04-25T10:25:58.731Z,94282.00
2023-04-25T10:26:58.693Z,94284.00
2023-04-25T10:27:58.738Z,94276.00
2023-04-25T10:28:59.471Z,94276.00
2023-04-25T10:29:58.729Z,94270.00
2023-04-25T10:30:58.853Z,94272.00
2023-04-25T10:31:58.798Z,94270.00
2023-04-25T10:32:58.773Z,94268.00
2023-04-25T10:33:58.779Z,94264.00
2023-04-25T10:34:58.784Z,94264.00
2023-04-25T10:35:58.763Z,94260.00
2023-04-25T10:36:58.765Z,94264.00
2023-04-25T10:37:58.960Z,94260.00
2023-04-25T10:38:58.790Z,94256.00
2023-04-25T10:39:58.821Z,94260.00
2023-04-25T10:40:58.802Z,94256.00
2023-04-25T10:41:58.850Z,94256.00
2023-04-25T10:42:58.967Z,94260.00
2023-04-25T10:43:58.781Z,94260.00
2023-04-25T10:44:58.796Z,94260.00
2023-04-25T10:45:58.875Z,94260.00
2023-04-25T10:46:58.995Z,94260.00
2023-04-25T10:47:59.010Z,94258.00
2023-04-25T10:48:58.904Z,94262.00
2023-04-25T10:49:58.916Z,94262.00
2023-04-25T10:50:58.976Z,94262.00
2023-04-25T10:51:58.973Z,94264.00
2023-04-25T10:52:59.046Z,94264.00
2023-04-25T10:53:59.459Z,94266.00
2023-04-25T10:54:59.123Z,94270.00
2023-04-25T10:55:59.175Z,94272.00
2023-04-25T10:56:59.219Z,94270.00
2023-04-25T10:57:59.552Z,94274.00
2023-04-25T10:58:59.550Z,94274.00
2023-04-25T10:59:59.312Z,94276.00
2023-04-25T11:00:59.317Z,94276.00
2023-04-25T11:01:59.415Z,94278.00
2023-04-25T11:02:59.533Z,94276.00
2023-04-25T11:03:59.900Z,94272.00
2023-04-25T11:04:59.451Z,94270.00
2023-04-25T11:05:59.444Z,94268.00
2023-04-25T11:08:07.779Z,94264.00
2023-04-25T11:09:00.846Z,94262.00
2023-04-25T11:09:59.475Z,94260.00
2023-04-25T11:10:59.351Z,94260.00
2023-04-25T11:11:59.425Z,94256.00
2023-04-25T11:12:59.342Z,94258.00
2023-04-25T11:13:59.274Z,94260.00
2023-04-25T11:14:59.206Z,94264.00
2023-04-25T11:16:07.397Z,94262.00
2023-04-25T11:18:00.248Z,94260.00
2023-04-25T11:18:59.499Z,94260.00
2023-04-25T11:19:59.095Z,94260.00
2023-04-25T11:20:59.051Z,94262.00
2023-04-25T11:21:59.010Z,94260.00
2023-04-25T11:22:58.982Z,94258.00
2023-04-25T11:23:58.996Z,94258.00
2023-04-25T11:24:58.997Z,94258.00
2023-04-25T11:25:58.936Z,94260.00
2023-04-25T11:26:58.871Z,94260.00
2023-04-25T11:27:58.869Z,94262.00
2023-04-25T11:28:58.989Z,94262.00
2023-04-25T11:29:58.792Z,94266.00
2023-04-25T11:30:58.790Z,94270.00
2023-04-25T11:31:58.772Z,94272.00
2023-04-25T11:32:58.765Z,94274.00
2023-04-25T11:33:59.007Z,94278.00
2023-04-25T11:34:58.666Z,94278.00
2023-04-25T11:35:58.598Z,94284.00
2023-04-25T11:36:58.572Z,94287.00
2023-04-25T11:37:58.742Z,94287.00
2023-04-25T11:38:59.000Z,94289.00
2023-04-25T11:39:58.544Z,94289.00
2023-04-25T11:40:58.489Z,94293.00
2023-04-25T11:41:58.541Z,94299.00
2023-04-25T11:42:58.448Z,94301.00
2023-04-25T11:43:58.886Z,94307.00
2023-04-25T11:44:58.429Z,94317.00
2023-04-25T11:45:58.504Z,94315.00
2023-04-25T11:46:58.390Z,94313.00